Time;durP1;ratioP1;P1;durP2;ratioP2;P2;SDS_P1;SDS_P2;PMS_P1;PMS_P2;Temp;Humidity;BMP_temperature;BMP_pressure;BME280_temperature;BME280_humidity;BME280_pressure;Samples;Min_cycle;Max_cycle;Signal;HPM_P1;HPM_P2
2022/09/10 00:02:24;;;;;;;4.22;1.23;;;;;;;13.22;100.00;98840.75;5097663;27;20059;-80
2022/09/10 00:04:52;;;;;;;3.67;1.50;;;;;;;13.18;100.00;98827.75;5109813;28;20652;-79
2022/09/10 00:07:19;;;;;;;1.92;1.10;;;;;;;13.34;100.00;98835.53;5109905;28;20109;-79
2022/09/10 00:09:45;;;;;;;5.38;1.42;;;;;;;13.26;100.00;98831.09;5110737;28;20055;-79
2022/09/10 00:12:13;;;;;;;3.55;1.10;;;;;;;13.30;100.00;98825.22;5108968;28;20044;-79
2022/09/10 00:14:40;;;;;;;2.63;1.20;;;;;;;13.26;100.00;98806.53;5110276;27;20051;-79
2022/09/10 00:17:07;;;;;;;1.23;0.80;;;;;;;13.38;100.00;98816.84;5110604;28;20044;-79
2022/09/10 00:19:33;;;;;;;2.83;1.13;;;;;;;13.34;100.00;98808.25;5102406;27;20056;-79
2022/09/10 00:22:01;;;;;;;2.45;1.48;;;;;;;13.34;100.00;98805.50;5103544;28;20434;-79
2022/09/10 00:24:28;;;;;;;3.67;1.00;;;;;;;13.29;100.00;98802.53;5109523;27;20051;-79
2022/09/10 00:26:54;;;;;;;2.25;0.95;;;;;;;13.38;100.00;98801.31;5110559;28;20088;-79
2022/09/10 00:29:21;;;;;;;2.63;0.93;;;;;;;13.30;100.00;98787.84;5110313;27;20040;-79
2022/09/10 00:31:48;;;;;;;1.50;0.60;;;;;;;13.26;100.00;98792.88;5110366;27;20066;-79
2022/09/10 00:34:15;;;;;;;6.13;1.75;;;;;;;13.29;100.00;98813.44;5109407;27;20102;-79
2022/09/10 00:36:43;;;;;;;2.85;0.75;;;;;;;13.31;100.00;98799.59;5109511;27;20075;-79
2022/09/10 00:39:14;;;;;;;7.43;2.40;;;;;;;13.39;100.00;98805.69;5101435;27;20052;-79
2022/09/10 00:41:43;;;;;;;4.82;1.52;;;;;;;13.20;100.00;98787.41;5100575;28;20044;-79
2022/09/10 00:44:43;;;;;;;2.15;0.88;;;;;;;13.18;100.00;98809.47;5094245;28;20044;-79
2022/09/10 00:47:14;;;;;;;3.22;0.77;;;;;;;13.26;100.00;98797.50;5109628;28;20043;-79
2022/09/10 00:49:43;;;;;;;3.28;1.10;;;;;;;13.29;100.00;98791.59;5109650;28;20491;-79
2022/09/10 00:52:11;;;;;;;1.17;0.90;;;;;;;13.30;100.00;98793.28;5108350;27;20055;-79
2022/09/10 00:54:41;;;;;;;3.97;1.02;;;;;;;13.22;100.00;98805.28;5109050;28;20043;-79
2022/09/10 00:57:11;;;;;;;7.18;0.73;;;;;;;13.27;100.00;98802.72;5108313;28;20093;-79
2022/09/10 00:59:40;;;;;;;3.85;0.85;;;;;;;13.24;100.00;98807.78;5109161;28;20093;-79
2022/09/10 01:02:07;;;;;;;3.53;0.90;;;;;;;13.25;100.00;98814.94;5108729;28;20047;-79
2022/09/10 01:04:34;;;;;;;3.03;1.00;;;;;;;13.35;100.00;98812.63;5109077;27;20039;-79
2022/09/10 01:07:01;;;;;;;3.33;0.80;;;;;;;13.18;100.00;98800.44;5117490;27;20050;-79
2022/09/10 01:09:29;;;;;;;4.00;1.05;;;;;;;13.43;100.00;98825.25;5105973;27;20062;-79
2022/09/10 01:12:11;;;;;;;4.28;0.80;;;;;;;13.39;100.00;98802.13;5108236;28;20052;-79
2022/09/10 01:14:57;;;;;;;3.15;0.90;;;;;;;13.25;100.00;98802.13;5109293;28;20066;-79
2022/09/10 01:17:33;;;;;;;1.75;0.88;;;;;;;13.35;100.00;98788.06;5110015;28;20085;-79
2022/09/10 01:20:37;;;;;;;2.72;1.02;;;;;;;13.31;100.00;98791.38;5107354;28;20055;-79
2022/09/10 01:23:38;;;;;;;1.85;0.80;;;;;;;13.32;100.00;98812.19;5106578;28;20040;-79
2022/09/10 01:26:19;;;;;;;4.10;1.02;;;;;;;13.31;100.00;98814.09;5108557;28;20067;-79
2022/09/10 01:28:55;;;;;;;1.25;0.80;;;;;;;13.38;100.00;98817.69;5107539;28;20052;-79
2022/09/10 01:31:26;;;;;;;1.52;1.02;;;;;;;13.49;100.00;98809.88;5109532;28;20130;-79
2022/09/10 01:34:01;;;;;;;1.33;0.82;;;;;;;13.40;100.00;98807.38;5107781;28;20051;-79
2022/09/10 01:36:33;;;;;;;4.65;1.20;;;;;;;13.47;100.00;98810.09;5109293;28;20044;-79
2022/09/10 01:39:00;;;;;;;1.05;0.70;;;;;;;13.44;100.00;98799.59;5110560;27;20560;-79
2022/09/10 01:41:27;;;;;;;5.90;1.35;;;;;;;13.57;100.00;98824.16;5106066;27;20044;-79
2022/09/10 01:43:55;;;;;;;5.07;0.93;;;;;;;13.45;100.00;98809.47;5105872;27;20066;-79
2022/09/10 01:46:36;;;;;;;4.93;0.80;;;;;;;13.42;100.00;98805.28;5112469;27;20043;-79
2022/09/10 01:49:12;;;;;;;;;;;;;;;13.44;100.00;98827.75;5128167;27;20050;-79
2022/09/10 01:52:04;;;;;;;1.75;1.00;;;;;;;13.51;100.00;98816.00;5117522;27;19919;-79
2022/09/10 01:54:44;;;;;;;7.30;1.92;;;;;;;13.48;100.00;98810.97;5117988;27;20056;-80
2022/09/10 01:57:26;;;;;;;2.45;0.90;;;;;;;13.47;100.00;98796.44;5101978;28;20176;-79
2022/09/10 02:00:03;;;;;;;7.07;0.90;;;;;;;13.58;100.00;98817.66;5111525;27;20047;-79
2022/09/10 02:02:35;;;;;;;3.88;1.00;;;;;;;13.44;100.00;98803.19;5106415;28;20050;-79
2022/09/10 02:05:05;;;;;;;7.03;1.20;;;;;;;13.53;100.00;98813.88;5111077;27;20058;-79
2022/09/10 02:07:34;;;;;;;1.08;0.68;;;;;;;13.54;100.00;98815.56;5110926;28;20039;-80
2022/09/10 02:10:04;;;;;;;2.03;0.70;;;;;;;13.57;100.00;98824.16;5105290;28;20048;-80
2022/09/10 02:12:30;;;;;;;9.80;1.58;;;;;;;13.50;100.00;98806.09;5117755;27;20050;-80
2022/09/10 02:14:58;;;;;;;2.33;1.00;;;;;;;13.52;100.00;98815.78;5113102;27;20040;-80
2022/09/10 02:17:29;;;;;;;3.45;1.10;;;;;;;13.36;100.00;98794.38;5102806;28;20047;-80
2022/09/10 02:19:57;;;;;;;6.95;1.38;;;;;;;13.50;100.00;98815.13;5118601;27;20121;-80
2022/09/10 02:22:24;;;;;;;3.60;0.65;;;;;;;13.37;100.00;98816.00;5086407;28;20514;-80
2022/09/10 02:24:52;;;;;;;2.78;0.60;;;;;;;13.50;100.00;98811.56;5113478;28;20125;-80
2022/09/10 02:27:19;;;;;;;2.78;0.70;;;;;;;13.45;100.00;98810.31;5127437;28;20035;-80
2022/09/10 02:29:45;;;;;;;4.22;0.80;;;;;;;13.45;100.00;98813.03;5119125;28;20060;-80
2022/09/10 02:32:13;;;;;;;2.28;0.70;;;;;;;13.48;100.00;98817.25;5108993;28;20047;-80
2022/09/10 02:34:40;;;;;;;2.55;0.77;;;;;;;13.49;100.00;98813.47;5109449;28;20050;-80
2022/09/10 02:37:06;;;;;;;2.00;0.60;;;;;;;13.36;100.00;98819.78;5100164;28;20416;-79
2022/09/10 02:39:34;;;;;;;0.85;0.40;;;;;;;13.38;100.00;98806.78;5107244;28;20463;-80
2022/09/10 02:42:00;;;;;;;3.67;0.80;;;;;;;13.34;100.00;98804.66;5106696;28;20457;-80
2022/09/10 02:44:28;;;;;;;5.57;0.73;;;;;;;13.45;100.00;98812.22;5121742;28;20035;-80
2022/09/10 02:46:55;;;;;;;0.60;0.45;;;;;;;13.40;100.00;98818.31;5120513;28;20040;-80
2022/09/10 02:49:23;;;;;;;0.95;0.60;;;;;;;13.22;100.00;98794.34;5111994;28;20051;-80
2022/09/10 02:51:50;;;;;;;3.60;0.70;;;;;;;13.25;100.00;98782.19;5111041;28;20046;-80
2022/09/10 02:54:18;;;;;;;1.55;0.63;;;;;;;13.25;100.00;98782.19;5128902;28;20057;-79
2022/09/10 02:56:48;;;;;;;1.63;0.57;;;;;;;13.25;100.00;98795.84;5117830;28;20048;-80
2022/09/10 02:59:15;;;;;;;0.50;0.50;;;;;;;13.17;100.00;98796.03;5117505;28;20052;-80
2022/09/10 03:01:42;;;;;;;1.40;0.52;;;;;;;13.30;100.00;98811.56;5125548;28;20043;-79
2022/09/10 03:04:09;;;;;;;3.28;0.70;;;;;;;13.19;100.00;98788.50;5109258;28;20061;-79
2022/09/10 03:06:37;;;;;;;2.35;0.70;;;;;;;13.33;100.00;98809.25;5104806;28;20310;-79
2022/09/10 03:09:03;;;;;;;3.10;0.50;;;;;;;13.24;100.00;98789.50;5116999;28;20041;-79
2022/09/10 03:11:30;;;;;;;0.77;0.40;;;;;;;13.26;100.00;98783.84;5111527;28;20427;-79
2022/09/10 03:13:57;;;;;;;2.33;0.43;;;;;;;13.30;100.00;98797.94;5118267;28;20287;-79
2022/09/10 03:16:23;;;;;;;2.17;0.73;;;;;;;13.25;100.00;98784.91;5112963;27;20047;-79
2022/09/10 03:18:50;;;;;;;0.80;0.70;;;;;;;13.12;100.00;98777.56;5108204;27;20124;-79
2022/09/10 03:21:19;;;;;;;2.42;0.50;;;;;;;13.21;100.00;98773.56;5114076;27;20183;-79
2022/09/10 03:23:49;;;;;;;0.95;0.77;;;;;;;13.20;100.00;98768.31;5122933;27;20051;-80
2022/09/10 03:26:17;;;;;;;1.30;0.88;;;;;;;13.34;100.00;98789.13;5122034;27;20081;-79
2022/09/10 03:28:45;;;;;;;1.27;0.95;;;;;;;13.36;100.00;98789.75;5122405;27;20340;-80
2022/09/10 03:31:12;;;;;;;3.95;0.95;;;;;;;13.21;100.00;98770.81;5119806;27;20399;-79
2022/09/10 03:33:39;;;;;;;3.08;0.80;;;;;;;13.31;100.00;98780.47;5110162;28;20135;-79
2022/09/10 03:36:06;;;;;;;1.50;0.73;;;;;;;13.20;100.00;98768.31;5116457;27;20054;-80
2022/09/10 03:38:33;;;;;;;0.70;0.70;;;;;;;13.28;100.00;98773.56;5123269;27;20418;-80
2022/09/10 03:41:01;;;;;;;1.52;0.80;;;;;;;13.17;100.00;98775.06;5121766;27;20055;-79
2022/09/10 03:43:28;;;;;;;2.55;0.95;;;;;;;13.22;100.00;98788.91;5116225;27;20070;-79
2022/09/10 03:45:55;;;;;;;3.10;0.80;;;;;;;13.19;100.00;98770.22;5118051;27;20047;-80
2022/09/10 03:48:22;;;;;;;3.05;1.00;;;;;;;13.33;100.00;98784.69;5120806;27;20044;-79
2022/09/10 03:50:50;;;;;;;8.77;1.20;;;;;;;13.43;100.00;98779.66;5113793;27;20499;-80
2022/09/10 03:53:18;;;;;;;1.20;1.00;;;;;;;13.37;100.00;98774.19;5104204;28;20043;-80
2022/09/10 03:55:45;;;;;;;2.25;1.25;;;;;;;13.39;100.00;98780.31;5117388;27;20051;-80
2022/09/10 03:58:14;;;;;;;2.90;1.00;;;;;;;13.28;100.00;98765.38;5115270;27;20380;-80
2022/09/10 04:00:41;;;;;;;1.27;0.82;;;;;;;13.43;100.00;98785.13;5121236;27;20070;-80
2022/09/10 04:03:09;;;;;;;3.60;0.85;;;;;;;13.33;100.00;98773.75;5112984;28;20052;-79
2022/09/10 04:05:39;;;;;;;3.15;1.20;;;;;;;13.34;100.00;98780.94;5113749;28;20058;-79
2022/09/10 04:08:08;;;;;;;3.63;1.05;;;;;;;13.41;100.00;98792.69;5113273;28;20047;-80
2022/09/10 04:10:35;;;;;;;6.07;1.10;;;;;;;13.39;100.00;98783.03;5111492;28;20418;-80
2022/09/10 04:13:02;;;;;;;7.10;1.60;;;;;;;13.30;100.00;98770.63;5112504;28;20079;-80
2022/09/10 04:15:30;;;;;;;4.03;0.90;;;;;;;13.38;100.00;98779.47;5113233;28;20047;-80
2022/09/10 04:17:57;;;;;;;6.18;0.90;;;;;;;13.38;100.00;98763.09;5113341;28;20403;-79
2022/09/10 04:20:24;;;;;;;1.92;0.90;;;;;;;13.42;100.00;98785.34;5113460;28;20044;-80
2022/09/10 04:22:51;;;;;;;5.22;1.10;;;;;;;13.50;100.00;98776.91;5108067;28;20128;-79
2022/09/10 04:25:18;;;;;;;2.53;1.10;;;;;;;13.41;100.00;98770.00;5106698;28;20051;-79
2022/09/10 04:27:45;;;;;;;1.67;0.73;;;;;;;13.41;100.00;98772.72;5112969;28;20040;-79
2022/09/10 04:30:13;;;;;;;9.80;1.63;;;;;;;13.51;100.00;98789.50;5113292;28;20056;-79
2022/09/10 04:32:41;;;;;;;4.82;1.02;;;;;;;13.50;100.00;98787.00;5112505;28;20044;-79
2022/09/10 04:35:09;;;;;;;1.42;1.00;;;;;;;13.52;100.00;98787.59;5113083;28;20063;-80
2022/09/10 04:37:35;;;;;;;1.92;1.00;;;;;;;13.50;100.00;98779.63;5110430;28;20063;-80
2022/09/10 04:40:03;;;;;;;1.75;0.90;;;;;;;13.47;100.00;98788.25;5105459;28;20126;-79
2022/09/10 04:42:31;;;;;;;1.25;0.98;;;;;;;13.42;100.00;98777.97;5111490;28;20411;-79
2022/09/10 04:44:57;;;;;;;3.17;0.90;;;;;;;13.44;100.00;98781.34;5113053;28;20051;-79
2022/09/10 04:47:24;;;;;;;2.17;1.00;;;;;;;13.45;100.00;98799.38;5112754;28;20097;-80
2022/09/10 04:49:52;;;;;;;2.00;0.82;;;;;;;13.42;100.00;98798.97;5112653;28;20047;-79
2022/09/10 04:52:21;;;;;;;4.05;1.10;;;;;;;13.45;100.00;98790.38;5103459;28;20054;-80
2022/09/10 04:54:48;;;;;;;3.28;0.85;;;;;;;13.58;100.00;98793.06;5111785;28;20429;-79
2022/09/10 04:57:14;;;;;;;2.35;1.00;;;;;;;13.55;100.00;98788.03;5110910;28;20047;-79
2022/09/10 04:59:41;;;;;;;2.42;1.00;;;;;;;13.58;100.00;98803.16;5110644;28;20104;-79
2022/09/10 05:02:08;;;;;;;2.92;1.05;;;;;;;13.62;100.00;98809.88;5111916;28;20065;-79
2022/09/10 05:04:35;;;;;;;2.15;0.90;;;;;;;13.57;100.00;98810.50;5112616;28;20052;-79
2022/09/10 05:07:02;;;;;;;3.92;1.20;;;;;;;13.45;100.00;98793.94;5112187;28;20105;-79
2022/09/10 05:09:30;;;;;;;5.10;1.13;;;;;;;13.51;100.00;98803.16;5112327;28;20209;-79
2022/09/10 05:11:57;;;;;;;2.80;1.33;;;;;;;13.52;100.00;98799.41;5110583;28;20048;-79
2022/09/10 05:14:24;;;;;;;5.30;1.23;;;;;;;13.66;100.00;98811.13;5103083;28;20412;-79
2022/09/10 05:16:50;;;;;;;2.45;1.30;;;;;;;13.55;100.00;98809.88;5111167;28;20052;-79
2022/09/10 05:19:17;;;;;;;1.67;0.80;;;;;;;13.63;100.00;98817.84;5112006;28;20133;-79
2022/09/10 05:21:44;;;;;;;2.33;1.00;;;;;;;13.63;100.00;98808.81;5112014;28;20047;-79
2022/09/10 05:24:12;;;;;;;1.55;1.00;;;;;;;13.56;100.00;98802.53;5110927;28;20078;-79
2022/09/10 05:26:39;;;;;;;7.28;1.30;;;;;;;13.66;100.00;98815.75;5111040;28;20051;-80
2022/09/10 05:29:05;;;;;;;3.03;1.15;;;;;;;13.60;100.00;98804.63;5104969;28;20051;-79
2022/09/10 05:31:32;;;;;;;8.15;1.42;;;;;;;13.60;100.00;98801.88;5111094;28;20669;-79
2022/09/10 05:33:59;;;;;;;2.55;0.95;;;;;;;13.74;100.00;98808.16;5110719;28;20043;-79
2022/09/10 05:36:26;;;;;;;4.40;1.13;;;;;;;13.65;100.00;98803.97;5111965;28;20104;-79
2022/09/10 05:38:53;;;;;;;3.13;1.10;;;;;;;13.75;100.00;98809.84;5111141;28;20418;-79
2022/09/10 05:41:22;;;;;;;4.10;1.33;;;;;;;13.74;100.00;98813.59;5106043;28;20564;-79
2022/09/10 05:43:49;;;;;;;6.07;0.95;;;;;;;13.74;100.00;98807.31;5110469;28;20520;-79
2022/09/10 05:46:16;;;;;;;6.40;1.13;;;;;;;13.76;100.00;98808.78;5111690;28;20047;-79
2022/09/10 05:48:43;;;;;;;0.85;0.80;;;;;;;13.81;100.00;98813.59;5110562;28;20047;-79
2022/09/10 05:51:09;;;;;;;4.47;1.20;;;;;;;13.92;100.00;98817.56;5111288;28;20051;-79
2022/09/10 05:53:37;;;;;;;3.75;0.95;;;;;;;13.88;100.00;98814.44;5111007;28;20461;-79
2022/09/10 05:56:04;;;;;;;2.03;1.23;;;;;;;13.92;100.00;98812.09;5110233;28;20099;-79
2022/09/10 05:58:33;;;;;;;1.65;0.90;;;;;;;14.04;100.00;98817.75;5101187;28;20043;-78
2022/09/10 06:01:00;;;;;;;3.22;1.38;;;;;;;14.04;100.00;98817.75;5111366;28;20147;-79
2022/09/10 06:03:26;;;;;;;3.30;1.10;;;;;;;14.01;100.00;98816.25;5109987;28;20047;-78
2022/09/10 06:05:54;;;;;;;4.43;2.13;;;;;;;13.92;100.00;98812.09;5110874;28;20054;-79
2022/09/10 06:08:21;;;;;;;5.28;2.30;;;;;;;14.01;100.00;98820.91;5111349;28;20320;-79
2022/09/10 06:10:55;;;;;;;5.65;1.40;;;;;;;14.05;100.00;98825.72;5109287;28;20039;-78
2022/09/10 06:13:22;;;;;;;3.05;1.20;;;;;;;13.96;100.00;98819.66;5110592;28;20043;-78
2022/09/10 06:15:50;;;;;;;4.10;1.30;;;;;;;14.16;100.00;98826.94;5110780;28;20294;-79
2022/09/10 06:18:17;;;;;;;3.03;1.10;;;;;;;14.10;100.00;98822.34;5111466;28;20079;-79
2022/09/10 06:20:44;;;;;;;3.30;1.00;;;;;;;14.22;100.00;98819.78;5110312;28;20052;-78
2022/09/10 06:23:11;;;;;;;2.45;1.00;;;;;;;14.18;100.00;98830.28;5110310;28;20055;-78
2022/09/10 06:25:37;;;;;;;3.88;0.88;;;;;;;14.25;100.00;98824.81;5101471;28;20082;-79
2022/09/10 06:28:04;;;;;;;7.22;0.70;;;;;;;14.36;100.00;98842.41;5110947;28;20165;-78
2022/09/10 06:30:31;;;;;;;1.60;1.00;;;;;;;14.37;100.00;98839.47;5111116;28;20134;-79
2022/09/10 06:32:59;;;;;;;1.10;0.60;;;;;;;14.39;100.00;98841.97;5110108;28;20039;-78
2022/09/10 06:35:26;;;;;;;3.33;0.85;;;;;;;14.33;100.00;98832.75;5110371;28;20055;-79
2022/09/10 06:37:52;;;;;;;1.48;0.68;;;;;;;14.40;100.00;98836.28;5110800;28;20040;-79
2022/09/10 06:40:19;;;;;;;1.10;0.80;;;;;;;14.29;100.00;98820.59;5101854;28;20052;-78
2022/09/10 06:42:45;;;;;;;3.53;1.00;;;;;;;14.23;100.00;98833.22;5108936;28;20048;-78
2022/09/10 06:45:13;;;;;;;1.08;0.73;;;;;;;14.32;100.00;98853.78;5110688;28;20040;-78
2022/09/10 06:47:39;;;;;;;7.32;0.70;;;;;;;14.36;100.00;98848.72;5110780;28;20435;-77
2022/09/10 06:50:08;;;;;;;2.35;1.08;;;;;;;14.51;100.00;98853.91;5113781;28;20059;-77
2022/09/10 06:52:36;;;;;;;2.08;1.15;;;;;;;14.52;100.00;98844.66;5112141;28;20168;-78
2022/09/10 06:55:03;;;;;;;3.78;0.90;;;;;;;14.58;100.00;98849.25;5114685;28;20051;-77
2022/09/10 06:57:30;;;;;;;3.60;1.40;;;;;;;14.69;100.00;98837.66;5113339;28;20047;-78
2022/09/10 06:59:57;;;;;;;2.80;0.90;;;;;;;14.77;100.00;98846.63;5114798;28;20048;-78
2022/09/10 07:02:24;;;;;;;1.77;0.85;;;;;;;15.05;100.00;98862.66;5114009;28;20060;-78
2022/09/10 07:04:50;;;;;;;2.25;0.98;;;;;;;15.09;100.00;98852.97;5114770;28;20063;-78
2022/09/10 07:07:18;;;;;;;2.40;0.90;;;;;;;15.16;100.00;98867.44;5112540;28;20046;-77
2022/09/10 07:09:45;;;;;;;1.75;0.80;;;;;;;15.26;100.00;98868.84;5114571;28;20071;-78
2022/09/10 07:12:11;;;;;;;2.97;0.90;;;;;;;15.20;100.00;98868.69;5113761;28;20051;-77
2022/09/10 07:14:38;;;;;;;2.90;1.02;;;;;;;15.17;100.00;98862.78;5114502;28;20040;-78
2022/09/10 07:17:05;;;;;;;2.70;1.30;;;;;;;15.06;100.00;98850.66;5112223;28;20059;-77
2022/09/10 07:19:32;;;;;;;2.03;1.10;;;;;;;15.20;100.00;98884.25;5114274;28;20054;-77
2022/09/10 07:21:59;;;;;;;2.53;0.80;;;;;;;15.17;100.00;98868.28;5109061;28;20079;-77
2022/09/10 07:24:27;;;;;;;2.47;1.67;;;;;;;15.08;100.00;98867.69;5113893;28;20043;-77
2022/09/10 07:26:56;;;;;;;1.90;0.90;;;;;;;15.34;100.00;98874.03;5114038;28;20051;-77
2022/09/10 07:29:22;;;;;;;1.63;1.08;;;;;;;15.26;100.00;98880.63;5114414;28;20048;-77
2022/09/10 07:31:49;;;;;;;3.00;0.93;;;;;;;15.19;100.00;98863.41;5114126;28;20452;-77
2022/09/10 07:34:16;;;;;;;9.10;1.02;;;;;;;15.24;100.00;98884.66;5113389;28;20047;-77
2022/09/10 07:36:42;;;;;;;5.55;0.93;;;;;;;15.32;100.00;98878.91;5108749;28;20411;-77
2022/09/10 07:39:10;;;;;;;2.42;0.85;;;;;;;15.37;100.00;98885.41;5110520;28;20409;-78
2022/09/10 07:41:38;;;;;;;4.43;0.90;;;;;;;15.47;100.00;98882.13;5111012;28;20055;-77
2022/09/10 07:44:05;;;;;;;1.58;0.80;;;;;;;15.68;100.00;98899.25;5113059;28;20056;-77
2022/09/10 07:46:31;;;;;;;2.53;0.80;;;;;;;15.38;100.00;98887.06;5113833;28;20442;-77
2022/09/10 07:49:00;;;;;;;1.80;0.90;;;;;;;15.33;100.00;98905.25;5113796;28;20049;-77
2022/09/10 07:51:31;;;;;;;1.67;1.00;;;;;;;15.46;100.00;98896.94;5113909;28;20134;-77
2022/09/10 07:53:59;;;;;;;2.67;0.90;;;;;;;15.54;100.00;98910.31;5112117;27;20096;-77
2022/09/10 07:56:26;;;;;;;2.78;0.77;;;;;;;15.50;100.00;98905.53;5113756;28;20046;-77
2022/09/10 07:58:56;;;;;;;2.30;0.75;;;;;;;15.47;100.00;98917.75;5112620;28;20051;-77
2022/09/10 08:01:22;;;;;;;1.13;0.60;;;;;;;15.48;100.00;98904.91;5112554;28;20051;-77
